Time;durP1;ratioP1;P1;durP2;ratioP2;P2;SDS_P1;SDS_P2;PMS_P1;PMS_P2;Temp;Humidity;BMP_temperature;BMP_pressure;BME280_temperature;BME280_humidity;BME280_pressure;Samples;Min_cycle;Max_cycle;Signal;HPM_P1;HPM_P2
2022/03/13 00:00:11;;;;;;;13.98;9.43;;;6.60;99.90;;;;;;6267782;22;20043;-59
2022/03/13 00:02:37;;;;;;;16.30;9.90;;;6.60;99.90;;;;;;6253307;22;20446;-68
2022/03/13 00:05:14;;;;;;;13.32;8.93;;;6.60;99.90;;;;;;6268572;22;20056;-58
2022/03/13 00:07:44;;;;;;;10.98;7.85;;;6.60;99.90;;;;;;6215522;22;20442;-56
2022/03/13 00:10:10;;;;;;;11.55;8.55;;;6.50;99.90;;;;;;6267652;22;20153;-56
2022/03/13 00:12:36;;;;;;;12.00;8.90;;;6.50;99.90;;;;;;6266645;22;20501;-56
2022/03/13 00:15:09;;;;;;;15.95;9.40;;;6.50;99.90;;;;;;6267344;22;20095;-56
2022/03/13 00:17:35;;;;;;;14.73;9.87;;;6.50;99.90;;;;;;6268121;22;20019;-57
2022/03/13 00:20:04;;;;;;;16.73;9.63;;;6.40;99.90;;;;;;6267874;22;20016;-55
2022/03/13 00:22:31;;;;;;;14.13;9.63;;;6.40;99.90;;;;;;6241282;22;20016;-56
2022/03/13 00:24:59;;;;;;;12.40;8.93;;;6.40;99.90;;;;;;6267119;22;20026;-56
2022/03/13 00:27:25;;;;;;;15.43;10.70;;;6.40;99.90;;;;;;6240540;22;20055;-56
2022/03/13 00:29:51;;;;;;;14.18;8.93;;;6.30;99.90;;;;;;6267976;22;20095;-56
2022/03/13 00:32:17;;;;;;;19.05;9.20;;;6.90;99.90;;;;;;6267443;22;20391;-56
2022/03/13 00:34:43;;;;;;;13.10;9.23;;;6.30;99.90;;;;;;6268209;22;20019;-55
2022/03/13 00:37:10;;;;;;;14.27;9.35;;;6.30;99.90;;;;;;6267102;22;20102;-56
2022/03/13 00:39:38;;;;;;;12.57;9.52;;;6.20;99.90;;;;;;6239728;22;20075;-56
2022/03/13 00:42:05;;;;;;;14.13;9.00;;;6.20;99.90;;;;;;6268065;22;20337;-57
2022/03/13 00:44:30;;;;;;;15.70;9.32;;;6.20;99.90;;;;;;6267687;22;20020;-56
2022/03/13 00:46:56;;;;;;;12.13;8.07;;;6.20;99.90;;;;;;6267445;22;20084;-56
2022/03/13 00:49:22;;;;;;;13.93;9.85;;;6.20;99.90;;;;;;6267532;22;20119;-56
2022/03/13 00:51:48;;;;;;;14.57;9.73;;;6.10;99.90;;;;;;6239648;22;20107;-56
2022/03/13 00:54:13;;;;;;;14.25;9.63;;;6.20;99.90;;;;;;6239960;22;20019;-56
2022/03/13 00:56:39;;;;;;;15.00;9.70;;;6.10;99.90;;;;;;6266879;22;20418;-59
2022/03/13 00:59:05;;;;;;;13.35;8.90;;;6.10;99.90;;;;;;6268091;22;20338;-56
2022/03/13 01:01:31;;;;;;;18.90;10.27;;;6.20;99.90;;;;;;6267106;22;20027;-57
2022/03/13 01:03:56;;;;;;;15.18;8.82;;;6.20;99.90;;;;;;6239353;22;20158;-64
2022/03/13 01:06:22;;;;;;;15.20;9.30;;;6.20;99.90;;;;;;6239456;22;20062;-57
2022/03/13 01:08:52;;;;;;;15.75;10.35;;;6.10;99.90;;;;;;6267527;22;20011;-61
2022/03/13 01:11:20;;;;;;;14.05;9.07;;;6.10;99.90;;;;;;6266868;22;20016;-59
2022/03/13 01:13:47;;;;;;;13.57;9.15;;;6.20;99.90;;;;;;6239674;22;20019;-67
2022/03/13 01:16:22;;;;;;;13.45;10.07;;;6.20;99.90;;;;;;6239191;22;20191;-65
2022/03/13 01:18:51;;;;;;;15.82;9.63;;;6.20;99.90;;;;;;6267384;22;20020;-61
2022/03/13 01:21:17;;;;;;;15.15;9.77;;;6.20;99.90;;;;;;6267331;22;20395;-62
2022/03/13 01:24:01;;;;;;;14.88;9.90;;;6.20;99.90;;;;;;6267002;22;20441;-64
2022/03/13 01:26:34;;;;;;;;;;;6.20;99.90;;;;;;6267750;22;20023;-56
2022/03/13 01:29:01;;;;;;;14.88;9.65;;;6.20;99.90;;;;;;6266769;22;19950;-56
2022/03/13 01:31:29;;;;;;;14.13;9.60;;;6.20;99.90;;;;;;6266950;22;20614;-59
2022/03/13 01:33:57;;;;;;;15.43;9.65;;;6.30;99.90;;;;;;6267413;22;20046;-56
2022/03/13 01:36:23;;;;;;;16.60;10.82;;;6.30;99.90;;;;;;6267287;22;20085;-56
2022/03/13 01:38:53;;;;;;;16.27;10.07;;;6.30;99.90;;;;;;6267789;22;20564;-58
2022/03/13 01:41:19;;;;;;;14.02;9.80;;;6.30;99.90;;;;;;6239740;22;20030;-57
2022/03/13 01:43:45;;;;;;;16.73;10.13;;;6.30;99.90;;;;;;6268018;22;20326;-56
2022/03/13 01:46:11;;;;;;;14.82;10.25;;;6.30;99.90;;;;;;6240069;22;20020;-57
2022/03/13 01:48:55;;;;;;;16.38;9.38;;;6.60;99.90;;;;;;6267577;22;20358;-55
2022/03/13 01:51:21;;;;;;;15.13;10.30;;;6.30;99.90;;;;;;6267710;22;20019;-56
2022/03/13 01:53:51;;;;;;;12.88;8.55;;;6.30;99.90;;;;;;6267955;22;20252;-56
2022/03/13 01:56:17;;;;;;;18.67;10.23;;;6.30;99.90;;;;;;6266046;22;20071;-56
2022/03/13 01:58:42;;;;;;;16.40;10.57;;;6.30;99.90;;;;;;6267134;22;20434;-56
2022/03/13 02:01:08;;;;;;;14.18;8.77;;;6.30;99.90;;;;;;6266956;22;20086;-56
2022/03/13 02:03:34;;;;;;;14.50;10.43;;;6.30;99.90;;;;;;6266969;22;20059;-56
2022/03/13 02:06:00;;;;;;;14.35;9.32;;;6.90;99.90;;;;;;6266461;22;20100;-57
2022/03/13 02:08:25;;;;;;;18.05;10.05;;;6.30;99.90;;;;;;6267314;22;20457;-56
2022/03/13 02:10:51;;;;;;;12.30;9.00;;;6.30;99.90;;;;;;6267810;22;20020;-59
2022/03/13 02:13:19;;;;;;;18.45;10.68;;;6.30;99.90;;;;;;6239349;22;20059;-60
2022/03/13 02:15:45;;;;;;;15.02;9.38;;;6.30;99.90;;;;;;6267598;22;20054;-56
2022/03/13 02:18:12;;;;;;;13.30;9.60;;;6.30;99.90;;;;;;6239824;22;20073;-56
2022/03/13 02:20:42;;;;;;;15.10;9.98;;;6.40;99.90;;;;;;6236989;22;20019;-60
2022/03/13 02:23:21;;;;;;;13.80;9.27;;;6.40;99.90;;;;;;6240366;22;20126;-56
2022/03/13 02:25:49;;;;;;;13.20;9.18;;;6.40;99.90;;;;;;6239653;22;20045;-59
2022/03/13 02:28:22;;;;;;;16.58;10.45;;;6.40;99.90;;;;;;6240061;22;20028;-59
2022/03/13 02:30:49;;;;;;;14.15;9.20;;;6.40;99.90;;;;;;6267651;22;20054;-56
2022/03/13 02:33:18;;;;;;;19.02;9.43;;;6.40;99.90;;;;;;6266457;22;20031;-60
2022/03/13 02:35:57;;;;;;;16.25;10.27;;;6.40;99.90;;;;;;6266928;22;20016;-56
2022/03/13 02:38:24;;;;;;;21.77;9.63;;;6.40;99.90;;;;;;6239031;22;20034;-58
2022/03/13 02:40:51;;;;;;;17.45;10.20;;;6.40;99.90;;;;;;6239554;22;20058;-62
2022/03/13 02:43:17;;;;;;;15.45;9.65;;;6.40;99.90;;;;;;6266463;22;20312;-56
2022/03/13 02:45:43;;;;;;;12.52;9.80;;;6.40;99.90;;;;;;6267420;22;20022;-60
2022/03/13 02:48:11;;;;;;;16.13;10.70;;;6.30;99.90;;;;;;6265934;22;20462;-56
2022/03/13 02:50:38;;;;;;;14.75;9.32;;;6.40;99.90;;;;;;6239727;22;20020;-56
2022/03/13 02:53:04;;;;;;;16.52;10.07;;;6.90;99.90;;;;;;6239122;22;20023;-57
2022/03/13 02:55:31;;;;;;;18.55;10.57;;;6.30;99.90;;;;;;6266320;22;20023;-57
2022/03/13 02:57:57;;;;;;;19.40;11.23;;;6.30;99.90;;;;;;6266793;22;20094;-56
2022/03/13 03:00:41;;;;;;;15.25;10.20;;;6.10;99.90;;;;;;6267145;22;20012;-56
2022/03/13 03:03:07;;;;;;;16.58;10.07;;;6.30;99.90;;;;;;6239770;22;20446;-56
2022/03/13 03:05:34;;;;;;;19.13;9.90;;;6.70;99.90;;;;;;6239412;22;20084;-56
2022/03/13 03:08:00;;;;;;;16.38;10.40;;;7.40;99.90;;;;;;6238359;22;20117;-56
2022/03/13 03:10:26;;;;;;;18.20;11.05;;;6.20;99.90;;;;;;6265333;22;20027;-56
2022/03/13 03:12:51;;;;;;;13.27;9.50;;;6.20;99.90;;;;;;6238745;22;20024;-56
2022/03/13 03:15:20;;;;;;;17.25;11.05;;;6.20;99.90;;;;;;6266709;22;20020;-59
2022/03/13 03:17:45;;;;;;;11.75;8.07;;;6.20;99.90;;;;;;6238894;22;20403;-62
2022/03/13 03:20:12;;;;;;;12.65;9.07;;;6.10;99.90;;;;;;6266751;22;20081;-56
2022/03/13 03:22:40;;;;;;;16.77;9.75;;;6.10;99.90;;;;;;6266540;22;20342;-58
2022/03/13 03:25:06;;;;;;;13.98;9.40;;;6.10;99.90;;;;;;6266788;22;20110;-57
2022/03/13 03:27:32;;;;;;;15.93;10.23;;;6.00;99.90;;;;;;6266346;22;20351;-56
2022/03/13 03:30:02;;;;;;;17.10;9.98;;;6.10;99.90;;;;;;6265492;22;20016;-58
2022/03/13 03:32:27;;;;;;;16.23;9.45;;;6.40;99.90;;;;;;6265748;22;20042;-59
2022/03/13 03:34:53;;;;;;;14.65;9.57;;;6.00;99.90;;;;;;6269242;22;20338;-59
2022/03/13 03:37:19;;;;;;;15.18;11.07;;;6.00;99.90;;;;;;6268780;22;20020;-57
2022/03/13 03:39:45;;;;;;;14.20;9.05;;;6.00;99.90;;;;;;6267934;22;20027;-56
2022/03/13 03:42:10;;;;;;;15.45;10.07;;;5.90;99.90;;;;;;6268170;22;20024;-58
2022/03/13 03:44:36;;;;;;;16.70;10.88;;;5.90;99.90;;;;;;6268808;22;20335;-57
2022/03/13 03:47:02;;;;;;;15.48;9.82;;;5.90;99.90;;;;;;6268746;22;20509;-60
2022/03/13 03:49:28;;;;;;;14.48;9.75;;;5.80;99.90;;;;;;6240847;22;20020;-57
2022/03/13 03:51:53;;;;;;;16.17;10.18;;;5.80;99.90;;;;;;6268962;22;20090;-58
2022/03/13 03:54:19;;;;;;;15.35;10.90;;;5.80;99.90;;;;;;6241222;22;20521;-56
2022/03/13 03:56:45;;;;;;;16.70;11.05;;;5.80;99.90;;;;;;6269100;22;20021;-57
2022/03/13 03:59:11;;;;;;;15.95;10.43;;;5.70;99.90;;;;;;6268262;22;20020;-58
2022/03/13 04:01:42;;;;;;;14.00;10.07;;;5.70;99.90;;;;;;6268017;22;20016;-57
2022/03/13 04:04:09;;;;;;;15.57;10.57;;;5.70;99.90;;;;;;6240557;22;20450;-57
2022/03/13 04:06:39;;;;;;;19.35;10.45;;;5.60;99.90;;;;;;6268314;22;20030;-59
2022/03/13 04:09:08;;;;;;;15.65;9.38;;;5.60;99.90;;;;;;6267955;22;20073;-59
2022/03/13 04:11:35;;;;;;;15.48;10.07;;;5.60;99.90;;;;;;6268005;22;20015;-59
2022/03/13 04:14:01;;;;;;;15.70;10.57;;;5.50;99.90;;;;;;6241431;22;20081;-58
2022/03/13 04:16:27;;;;;;;16.80;9.95;;;5.50;99.90;;;;;;6269110;22;20077;-58
2022/03/13 04:18:54;;;;;;;16.67;10.38;;;5.40;99.90;;;;;;6268331;22;20037;-56
2022/03/13 04:21:22;;;;;;;15.52;9.85;;;5.40;99.90;;;;;;6268283;22;20020;-59
2022/03/13 04:23:48;;;;;;;15.07;10.27;;;3.90;99.90;;;;;;6267521;22;20395;-56
2022/03/13 04:26:15;;;;;;;14.85;10.30;;;5.30;99.90;;;;;;6267746;22;20454;-56
2022/03/13 04:28:41;;;;;;;12.25;9.30;;;5.30;99.90;;;;;;6268234;22;20016;-59
2022/03/13 04:31:08;;;;;;;17.52;10.15;;;5.20;99.90;;;;;;6241454;22;20103;-56
2022/03/13 04:33:36;;;;;;;17.65;10.70;;;5.20;99.90;;;;;;6267966;22;20354;-66
2022/03/13 04:36:05;;;;;;;13.35;9.90;;;5.30;99.90;;;;;;6240624;22;20050;-59
2022/03/13 04:38:31;;;;;;;18.52;10.82;;;5.10;99.90;;;;;;6267922;22;20096;-56
2022/03/13 04:40:57;;;;;;;17.30;10.65;;;5.10;99.90;;;;;;6268041;22;20324;-56
2022/03/13 04:43:23;;;;;;;14.27;10.50;;;5.00;99.90;;;;;;6266702;22;20020;-56
2022/03/13 04:45:50;;;;;;;17.73;10.60;;;5.70;99.90;;;;;;6265347;22;20027;-56
2022/03/13 04:48:19;;;;;;;15.70;11.40;;;5.00;99.90;;;;;;6268116;22;20566;-56
2022/03/13 04:50:46;;;;;;;16.92;11.10;;;5.10;99.90;;;;;;6268466;22;20420;-56
2022/03/13 04:53:12;;;;;;;16.08;9.43;;;4.90;99.90;;;;;;6239981;22;20020;-56
2022/03/13 04:55:38;;;;;;;14.43;9.38;;;4.90;99.90;;;;;;6267959;22;20023;-56
2022/03/13 04:58:03;;;;;;;15.27;10.13;;;4.90;99.90;;;;;;6267556;22;20020;-56
2022/03/13 05:00:29;;;;;;;15.18;10.23;;;4.90;99.90;;;;;;6267462;22;20381;-59
2022/03/13 05:02:55;;;;;;;17.25;10.50;;;4.80;99.90;;;;;;6240502;22;20027;-59
2022/03/13 05:05:23;;;;;;;14.32;10.13;;;4.80;99.90;;;;;;6267064;22;20345;-63
2022/03/13 05:07:49;;;;;;;14.82;9.82;;;4.70;99.90;;;;;;6267626;22;20078;-62
2022/03/13 05:10:17;;;;;;;15.32;10.02;;;4.70;99.90;;;;;;6238722;22;20020;-57
2022/03/13 05:12:44;;;;;;;16.40;9.32;;;4.70;99.90;;;;;;6267436;22;20015;-64
2022/03/13 05:15:10;;;;;;;15.02;9.52;;;4.60;99.90;;;;;;6241172;22;20019;-56
2022/03/13 05:17:36;;;;;;;15.88;9.93;;;4.60;99.90;;;;;;6239595;22;20126;-56
2022/03/13 05:20:01;;;;;;;15.05;9.18;;;4.60;99.90;;;;;;6267704;22;20098;-55
2022/03/13 05:22:27;;;;;;;18.92;9.85;;;4.60;99.90;;;;;;6267447;22;20093;-56
2022/03/13 05:24:53;;;;;;;14.75;9.35;;;4.50;99.90;;;;;;6215945;22;20016;-56
2022/03/13 05:27:18;;;;;;;17.48;9.50;;;4.50;99.90;;;;;;6239697;22;20034;-56
2022/03/13 05:29:44;;;;;;;16.38;10.85;;;4.50;99.90;;;;;;6268083;22;20150;-56
2022/03/13 05:32:10;;;;;;;16.00;9.90;;;4.50;99.90;;;;;;6267419;22;20046;-56
2022/03/13 05:34:36;;;;;;;15.18;9.60;;;4.40;99.90;;;;;;6267911;22;20035;-56
2022/03/13 05:37:02;;;;;;;16.70;9.43;;;4.40;99.90;;;;;;6266741;22;20278;-56
2022/03/13 05:39:28;;;;;;;13.52;9.10;;;4.40;99.90;;;;;;6266501;22;20442;-56
2022/03/13 05:41:55;;;;;;;16.80;9.98;;;4.40;99.90;;;;;;6267164;22;20023;-56
2022/03/13 05:44:21;;;;;;;14.63;9.25;;;4.90;99.90;;;;;;6266187;22;20012;-56
2022/03/13 05:46:48;;;;;;;13.77;8.70;;;4.40;99.90;;;;;;6267088;22;20412;-56
2022/03/13 05:49:13;;;;;;;18.33;9.15;;;4.40;99.90;;;;;;6267202;22;20468;-56
2022/03/13 05:51:40;;;;;;;13.20;9.07;;;4.40;99.90;;;;;;6266962;22;20015;-56
2022/03/13 05:54:06;;;;;;;14.52;9.35;;;4.40;99.90;;;;;;6267000;22;20084;-56
2022/03/13 05:56:32;;;;;;;14.63;9.73;;;4.40;99.90;;;;;;6267159;22;20019;-57
2022/03/13 05:58:58;;;;;;;15.25;9.50;;;4.30;99.90;;;;;;6267022;22;20026;-57
2022/03/13 06:01:23;;;;;;;13.45;9.27;;;4.40;99.90;;;;;;6267426;22;20016;-58
2022/03/13 06:03:49;;;;;;;14.23;9.32;;;4.40;99.90;;;;;;6267144;22;20054;-56
2022/03/13 06:06:15;;;;;;;17.65;8.63;;;4.40;99.90;;;;;;6267319;22;20012;-59
2022/03/13 06:08:41;;;;;;;15.20;9.23;;;4.50;99.90;;;;;;6267139;22;20031;-61
2022/03/13 06:11:08;;;;;;;14.30;9.13;;;4.50;99.90;;;;;;6267082;22;20016;-56
2022/03/13 06:13:34;;;;;;;12.80;9.07;;;4.60;99.90;;;;;;6239647;22;20337;-56
2022/03/13 06:16:00;;;;;;;16.20;9.25;;;4.60;99.90;;;;;;6267109;22;20015;-56
2022/03/13 06:18:31;;;;;;;15.00;9.43;;;4.70;99.90;;;;;;6239764;22;20028;-59
2022/03/13 06:20:58;;;;;;;13.82;9.77;;;4.70;99.90;;;;;;6266503;22;20065;-56
2022/03/13 06:23:24;;;;;;;14.18;9.07;;;4.80;99.90;;;;;;6266104;22;20095;-56
2022/03/13 06:25:50;;;;;;;13.43;9.30;;;4.90;99.90;;;;;;6266524;22;20074;-56
2022/03/13 06:28:16;;;;;;;16.50;9.80;;;5.00;99.90;;;;;;6265981;22;20038;-57
2022/03/13 06:30:43;;;;;;;13.48;8.80;;;5.00;99.90;;;;;;6239210;22;20025;-56
2022/03/13 06:33:08;;;;;;;17.63;10.23;;;5.10;99.90;;;;;;6266794;22;20023;-59
2022/03/13 06:35:34;;;;;;;15.27;9.05;;;5.20;99.90;;;;;;6265964;22;20033;-57
2022/03/13 06:38:00;;;;;;;13.90;8.88;;;5.30;99.90;;;;;;6238494;22;20027;-56
2022/03/13 06:40:26;;;;;;;11.88;9.02;;;5.30;99.90;;;;;;6265375;22;20454;-59
2022/03/13 06:42:54;;;;;;;14.02;8.30;;;5.40;99.90;;;;;;6239838;22;20153;-59
2022/03/13 06:45:21;;;;;;;16.58;8.55;;;5.50;99.90;;;;;;6266680;22;20019;-58
2022/03/13 06:47:49;;;;;;;14.50;8.15;;;5.60;99.90;;;;;;6265953;22;20073;-58
2022/03/13 06:50:17;;;;;;;16.13;8.55;;;5.70;99.90;;;;;;6266910;22;20015;-56
2022/03/13 06:52:47;;;;;;;11.63;8.13;;;5.80;99.90;;;;;;6265662;22;20030;-57
2022/03/13 06:55:13;;;;;;;12.40;7.88;;;6.00;99.90;;;;;;6239920;22;20398;-59
2022/03/13 06:57:40;;;;;;;13.38;7.95;;;6.00;99.90;;;;;;6267264;22;20024;-57
2022/03/13 07:00:06;;;;;;;17.48;8.98;;;6.30;99.90;;;;;;6266911;22;20488;-59
2022/03/13 07:02:32;;;;;;;14.60;8.48;;;6.10;99.90;;;;;;6266176;22;20015;-57
2022/03/13 07:04:58;;;;;;;12.88;8.82;;;6.00;99.90;;;;;;6266378;22;20094;-58
2022/03/13 07:07:23;;;;;;;12.90;8.30;;;6.00;99.90;;;;;;6266493;22;20020;-57
2022/03/13 07:09:49;;;;;;;12.13;8.88;;;6.10;99.90;;;;;;6266037;22;20027;-56
2022/03/13 07:12:16;;;;;;;11.82;8.05;;;6.20;99.90;;;;;;6267951;22;20012;-56
2022/03/13 07:14:45;;;;;;;12.52;8.15;;;6.20;99.90;;;;;;6268708;22;20024;-56
2022/03/13 07:17:11;;;;;;;14.05;7.95;;;6.20;99.90;;;;;;6267415;22;20019;-56
2022/03/13 07:19:37;;;;;;;14.02;8.15;;;6.30;99.90;;;;;;6267873;22;20016;-56
2022/03/13 07:22:03;;;;;;;10.02;7.47;;;6.30;99.90;;;;;;6267463;22;20023;-57
2022/03/13 07:24:29;;;;;;;14.20;8.07;;;6.40;99.90;;;;;;6266147;22;20015;-56
2022/03/13 07:26:55;;;;;;;12.23;8.55;;;6.50;99.90;;;;;;6267677;22;20394;-56
2022/03/13 07:29:20;;;;;;;13.52;8.48;;;6.70;99.90;;;;;;6240618;22;20066;-56
2022/03/13 07:31:46;;;;;;;9.20;7.20;;;6.80;99.90;;;;;;6267117;22;20016;-56
2022/03/13 07:34:12;;;;;;;11.18;7.82;;;6.90;99.90;;;;;;6267166;22;20022;-56
2022/03/13 07:36:39;;;;;;;13.40;7.63;;;7.10;99.90;;;;;;6266307;22;20053;-56
2022/03/13 07:39:05;;;;;;;12.32;7.70;;;7.10;99.90;;;;;;6266161;22;20354;-56
2022/03/13 07:41:31;;;;;;;10.90;7.85;;;7.50;99.90;;;;;;6266567;22;20026;-56
2022/03/13 07:43:56;;;;;;;12.07;8.15;;;7.30;99.90;;;;;;6267469;22;20011;-57
2022/03/13 07:46:22;;;;;;;13.85;8.32;;;7.40;99.90;;;;;;6240853;22;20016;-56
2022/03/13 07:48:47;;;;;;;13.48;7.88;;;7.50;99.90;;;;;;6240286;22;20671;-56
2022/03/13 07:51:15;;;;;;;10.38;7.75;;;7.60;99.90;;;;;;6268488;22;20050;-56
2022/03/13 07:53:41;;;;;;;10.15;7.13;;;7.70;99.90;;;;;;6237986;22;20031;-57
2022/03/13 07:56:06;;;;;;;13.95;8.05;;;7.80;99.90;;;;;;6265332;22;20026;-56
2022/03/13 07:58:33;;;;;;;11.45;7.32;;;8.00;99.90;;;;;;6268215;22;20016;-56
2022/03/13 08:00:58;;;;;;;11.80;7.50;;;8.10;99.90;;;;;;6240283;22;20058;-56
2022/03/13 08:03:36;;;;;;;11.88;7.72;;;8.60;99.90;;;;;;6265803;22;20024;-56
2022/03/13 08:06:03;;;;;;;10.05;6.93;;;8.50;99.90;;;;;;6265410;22;20083;-56
2022/03/13 08:08:29;;;;;;;14.13;7.75;;;8.70;99.90;;;;;;6268058;22;20026;-56
2022/03/13 08:10:55;;;;;;;10.75;7.20;;;8.80;99.90;;;;;;6264726;22;20012;-57
2022/03/13 08:13:21;;;;;;;11.15;7.80;;;8.90;99.90;;;;;;6266153;22;20062;-57
2022/03/13 08:15:47;;;;;;;13.02;8.00;;;9.10;99.90;;;;;;6265777;22;20093;-57
2022/03/13 08:18:13;;;;;;;11.80;7.10;;;9.30;99.90;;;;;;6266783;22;20027;-56
2022/03/13 08:20:39;;;;;;;12.68;7.97;;;9.40;99.90;;;;;;6266275;22;20055;-56
2022/03/13 08:23:04;;;;;;;10.73;7.97;;;9.60;99.90;;;;;;6267431;22;20023;-57
2022/03/13 08:25:30;;;;;;;12.95;7.55;;;9.80;99.90;;;;;;6267067;22;20019;-56
2022/03/13 08:27:56;;;;;;;16.52;8.35;;;9.90;99.90;;;;;;6267345;22;20444;-57
2022/03/13 08:30:22;;;;;;;11.77;8.00;;;10.00;99.90;;;;;;6266714;22;20016;-58
2022/03/13 08:32:49;;;;;;;9.57;7.25;;;10.20;99.90;;;;;;6262547;22;20030;-56
2022/03/13 08:35:14;;;;;;;11.40;7.78;;;10.30;99.90;;;;;;6237426;22;20024;-56
2022/03/13 08:37:40;;;;;;;12.15;7.57;;;10.40;99.90;;;;;;6265758;22;20024;-56
2022/03/13 08:40:09;;;;;;;11.60;7.18;;;9.80;99.90;;;;;;6264327;22;20016;-56
2022/03/13 08:42:34;;;;;;;11.45;7.50;;;10.70;99.80;;;;;;6264651;22;20026;-56
2022/03/13 08:45:00;;;;;;;10.02;6.85;;;10.90;99.60;;;;;;6265252;22;20024;-60
2022/03/13 08:47:27;;;;;;;14.82;8.20;;;11.00;99.40;;;;;;6264153;22;20024;-56
2022/03/13 08:49:53;;;;;;;13.82;8.27;;;11.10;99.20;;;;;;6262064;22;20536;-58
2022/03/13 08:52:19;;;;;;;12.63;8.00;;;11.30;99.00;;;;;;6263406;22;20019;-58
2022/03/13 08:54:45;;;;;;;10.48;7.22;;;11.40;98.70;;;;;;6264625;22;20046;-61
2022/03/13 08:57:11;;;;;;;9.35;7.18;;;11.60;98.60;;;;;;6265819;22;20016;-56
2022/03/13 08:59:37;;;;;;;11.10;7.80;;;11.90;98.30;;;;;;6235075;22;20030;-63
2022/03/13 09:02:04;;;;;;;12.88;7.43;;;11.90;98.00;;;;;;6260764;22;20024;-57
2022/03/13 09:04:30;;;;;;;9.82;7.78;;;12.10;97.70;;;;;;6262756;22;20026;-56
2022/03/13 09:06:56;;;;;;;12.82;7.78;;;12.60;97.20;;;;;;6261185;22;20023;-56
2022/03/13 09:09:23;;;;;;;10.25;7.60;;;12.90;96.80;;;;;;6261075;22;20095;-59
2022/03/13 09:11:51;;;;;;;10.32;7.05;;;13.40;96.30;;;;;;6261784;22;20035;-59
2022/03/13 09:14:17;;;;;;;12.13;8.95;;;13.80;95.90;;;;;;6261370;22;20016;-58
2022/03/13 09:16:45;;;;;;;10.73;7.82;;;14.20;95.40;;;;;;6260783;22;20053;-58
2022/03/13 09:19:10;;;;;;;14.57;8.23;;;14.70;94.60;;;;;;6260650;22;20454;-59
2022/03/13 09:21:38;;;;;;;13.45;8.70;;;15.10;94.50;;;;;;6259882;22;20252;-61
2022/03/13 09:24:09;;;;;;;9.45;7.22;;;15.50;93.90;;;;;;6234321;22;20090;-57
2022/03/13 09:26:39;;;;;;;9.60;7.82;;;15.60;93.10;;;;;;6264019;22;20393;-57
2022/03/13 09:29:06;;;;;;;11.38;7.55;;;16.00;92.50;;;;;;6262982;22;20455;-57
2022/03/13 09:31:32;;;;;;;10.88;8.20;;;16.20;92.70;;;;;;6261749;22;20026;-57
2022/03/13 09:33:57;;;;;;;10.43;7.70;;;16.50;92.30;;;;;;6232568;22;20102;-57
2022/03/13 09:36:24;;;;;;;9.55;7.28;;;16.70;92.10;;;;;;6261548;22;20015;-56
2022/03/13 09:38:51;;;;;;;11.05;7.95;;;17.20;91.30;;;;;;6235282;22;20595;-56
2022/03/13 09:41:18;;;;;;;11.40;7.88;;;17.40;91.00;;;;;;6262638;22;20016;-56
2022/03/13 09:43:44;;;;;;;10.05;7.20;;;17.60;90.60;;;;;;6264235;22;20391;-57
2022/03/13 09:46:10;;;;;;;11.85;7.60;;;17.80;90.30;;;;;;6264097;22;20037;-56
2022/03/13 09:48:36;;;;;;;10.07;7.90;;;18.00;90.00;;;;;;6263583;22;20030;-58
2022/03/13 09:51:07;;;;;;;8.02;6.95;;;18.10;89.40;;;;;;6263070;22;20023;-57
2022/03/13 09:53:34;;;;;;;9.80;7.35;;;18.20;88.70;;;;;;6263478;22;20434;-60
2022/03/13 09:56:01;;;;;;;12.48;8.27;;;18.40;88.00;;;;;;6263427;22;20023;-60
2022/03/13 09:58:28;;;;;;;10.82;8.05;;;18.60;87.60;;;;;;6264044;22;20454;-58
2022/03/13 10:00:54;;;;;;;8.43;7.22;;;18.80;86.60;;;;;;6264051;22;20095;-58
2022/03/13 10:03:19;;;;;;;10.20;7.60;;;19.10;85.70;;;;;;6263336;22;20402;-56
2022/03/13 10:05:50;;;;;;;10.77;8.57;;;19.40;85.10;;;;;;6263577;22;20023;-61
2022/03/13 10:08:17;;;;;;;12.63;7.85;;;19.40;83.20;;;;;;6236231;22;20020;-62
2022/03/13 10:10:50;;;;;;;12.38;7.38;;;19.60;83.60;;;;;;6263829;22;20019;-59
2022/03/13 10:13:37;;;;;;;14.00;8.35;;;19.90;82.10;;;;;;6263713;22;20693;-60
2022/03/13 10:16:26;;;;;;;10.45;7.40;;;20.30;79.50;;;;;;6263972;22;20077;-63
2022/03/13 10:18:52;;;;;;;10.15;8.07;;;20.40;82.20;;;;;;6219679;22;20023;-62
2022/03/13 10:21:18;;;;;;;12.32;8.43;;;20.70;80.70;;;;;;6235739;22;20030;-60
2022/03/13 10:23:47;;;;;;;8.50;7.20;;;20.80;80.10;;;;;;6262897;22;20020;-58
2022/03/13 10:26:16;;;;;;;11.45;7.68;;;20.80;79.10;;;;;;6263149;22;20026;-61
2022/03/13 10:28:42;;;;;;;11.27;8.05;;;20.90;77.70;;;;;;6263326;22;20062;-59
2022/03/13 10:31:17;;;;;;;10.90;7.53;;;21.10;77.00;;;;;;6262940;22;20073;-58
2022/03/13 10:33:42;;;;;;;11.25;7.57;;;20.80;75.40;;;;;;6262226;22;20027;-60
2022/03/13 10:36:16;;;;;;;10.02;7.45;;;20.60;75.90;;;;;;6262372;22;20020;-59
2022/03/13 10:38:44;;;;;;;9.90;8.23;;;20.50;75.70;;;;;;6262947;22;20020;-56
2022/03/13 10:41:12;;;;;;;8.85;7.65;;;20.30;76.00;;;;;;6262323;22;20026;-61
2022/03/13 10:43:58;;;;;;;8.18;7.03;;;20.30;76.00;;;;;;6262673;22;20462;-57
2022/03/13 10:46:26;;;;;;;10.27;7.70;;;20.20;73.60;;;;;;6262430;22;20019;-57
2022/03/13 10:48:53;;;;;;;8.95;7.35;;;20.20;76.70;;;;;;6263401;22;20042;-56
2022/03/13 10:51:35;;;;;;;10.85;8.95;;;20.40;76.50;;;;;;6260246;22;20024;-57
2022/03/13 10:54:02;;;;;;;10.15;8.02;;;20.40;74.40;;;;;;6262117;22;20387;-61
2022/03/13 10:56:28;;;;;;;11.05;7.78;;;20.50;75.60;;;;;;6262705;22;20019;-57
2022/03/13 10:58:54;;;;;;;11.07;8.32;;;20.50;75.30;;;;;;6261859;22;20074;-61
2022/03/13 11:01:22;;;;;;;11.93;8.27;;;20.50;74.70;;;;;;6263058;22;20016;-58
2022/03/13 11:03:56;;;;;;;10.95;7.82;;;20.50;74.60;;;;;;6262003;22;20065;-62
2022/03/13 11:06:23;;;;;;;13.73;8.82;;;20.60;73.60;;;;;;6209521;22;20020;-61
2022/03/13 11:08:53;;;;;;;12.90;8.88;;;20.70;74.30;;;;;;6232460;22;20038;-58
2022/03/13 11:11:20;;;;;;;13.10;8.20;;;20.70;74.50;;;;;;6234826;22;20016;-57
2022/03/13 11:13:55;;;;;;;10.27;7.90;;;20.70;74.40;;;;;;6263104;22;20022;-61
2022/03/13 11:16:32;;;;;;;9.52;7.90;;;20.70;72.50;;;;;;6262746;22;20099;-57
2022/03/13 11:19:02;;;;;;;11.27;8.43;;;20.60;72.40;;;;;;6229473;22;20462;-57
2022/03/13 11:21:28;;;;;;;13.45;8.20;;;20.60;72.60;;;;;;6233434;22;20020;-57
2022/03/13 11:23:55;;;;;;;10.48;8.45;;;20.60;73.60;;;;;;6233410;22;20020;-59
2022/03/13 11:26:24;;;;;;;11.23;7.90;;;20.50;72.70;;;;;;6261240;22;20019;-57
2022/03/13 11:28:50;;;;;;;12.15;8.73;;;20.50;72.50;;;;;;6261608;22;20107;-58
2022/03/13 11:31:38;;;;;;;10.63;8.68;;;20.40;73.10;;;;;;6261828;22;20045;-56
2022/03/13 11:34:14;;;;;;;13.27;8.15;;;20.60;72.30;;;;;;6261992;22;20026;-59
2022/03/13 11:36:47;;;;;;;10.93;8.18;;;20.70;72.20;;;;;;6261110;22;20417;-57
2022/03/13 11:39:31;;;;;;;14.03;8.90;;;20.90;72.50;;;;;;6261615;22;20016;-58
2022/03/13 11:41:58;;;;;;;16.30;14.55;;;21.10;72.20;;;;;;6235867;22;20341;-56
2022/03/13 11:44:23;;;;;;;16.17;14.52;;;21.20;73.80;;;;;;6234386;22;20018;-57
2022/03/13 11:46:52;;;;;;;17.45;12.73;;;21.50;73.50;;;;;;6262489;22;20020;-56
2022/03/13 11:49:26;;;;;;;11.98;10.73;;;21.30;73.70;;;;;;6262093;22;20016;-60
2022/03/13 11:52:13;;;;;;;10.90;9.40;;;21.50;73.70;;;;;;6234914;22;20024;-58
2022/03/13 11:54:45;;;;;;;10.68;8.00;;;22.20;71.00;;;;;;6262318;22;20027;-58
2022/03/13 11:57:15;;;;;;;11.45;8.70;;;22.70;70.60;;;;;;6263737;22;20023;-58
2022/03/13 11:59:42;;;;;;;8.85;7.70;;;23.20;70.70;;;;;;6263471;22;20023;-64
2022/03/13 12:02:12;;;;;;;9.60;8.20;;;24.10;70.70;;;;;;6264263;22;20043;-58
2022/03/13 12:04:38;;;;;;;10.95;7.25;;;25.60;68.70;;;;;;6236433;22;20024;-58
2022/03/13 12:07:23;;;;;;;11.32;8.65;;;27.70;68.00;;;;;;6263971;22;20163;-58
2022/03/13 12:09:49;;;;;;;9.38;7.88;;;29.50;65.10;;;;;;6263585;22;20020;-57
2022/03/13 12:12:17;;;;;;;10.20;8.40;;;30.30;63.80;;;;;;6263716;22;20316;-57
2022/03/13 12:14:54;;;;;;;9.25;7.88;;;31.40;61.50;;;;;;6236309;22;20020;-58
2022/03/13 12:17:25;;;;;;;9.80;7.90;;;31.90;58.90;;;;;;6263355;22;20030;-58
2022/03/13 12:19:55;;;;;;;8.63;7.72;;;32.20;57.80;;;;;;6211515;22;20438;-58
2022/03/13 12:22:23;;;;;;;9.35;7.65;;;32.70;56.70;;;;;;6264372;22;20026;-57
2022/03/13 12:24:51;;;;;;;8.35;7.10;;;32.70;55.20;;;;;;6263537;22;20016;-58
2022/03/13 12:27:18;;;;;;;11.10;8.07;;;33.60;53.80;;;;;;6235810;22;20023;-58
2022/03/13 12:29:55;;;;;;;9.07;8.13;;;33.40;52.80;;;;;;6234368;22;20027;-57
2022/03/13 12:32:32;;;;;;;11.02;8.13;;;33.10;49.30;;;;;;6235831;22;20028;-57
2022/03/13 12:34:59;;;;;;;10.82;7.57;;;33.60;50.50;;;;;;6263099;22;20535;-57
2022/03/13 12:37:27;;;;;;;7.95;7.03;;;33.00;50.20;;;;;;6263441;22;20137;-58
2022/03/13 12:39:57;;;;;;;9.55;7.32;;;32.60;50.30;;;;;;6263472;22;20026;-57
2022/03/13 12:42:25;;;;;;;9.02;7.45;;;33.00;49.40;;;;;;6263330;22;20055;-57
2022/03/13 12:45:12;;;;;;;9.82;7.72;;;32.70;48.90;;;;;;6263642;22;20142;-58